Time;durP1;ratioP1;P1;durP2;ratioP2;P2;SDS_P1;SDS_P2;PMS_P1;PMS_P2;Temp;Humidity;BMP_temperature;BMP_pressure;BME280_temperature;BME280_humidity;BME280_pressure;Samples;Min_cycle;Max_cycle;Signal;HPM_P1;HPM_P2
2023/03/08 00:00:28;;;;;;;4.05;1.63;;;;;;;;;;6257353;22;20004;-94
2023/03/08 00:02:59;;;;;;;3.50;1.20;;;;;;;;;;6284945;22;20405;-94
2023/03/08 00:05:25;;;;;;;6.57;1.05;;;;;;;;;;6259003;22;20008;-93
2023/03/08 00:07:56;;;;;;;2.22;1.33;;;;;;;;;;6284067;22;20007;-94
2023/03/08 00:10:22;;;;;;;2.67;1.30;;;;;;;;;;6284131;22;20014;-94
2023/03/08 00:12:49;;;;;;;3.28;1.30;;;;;;;;;;6256673;22;20008;-93
2023/03/08 00:15:18;;;;;;;5.45;1.30;;;;;;;;;;6282864;22;20028;-94
2023/03/08 00:17:54;;;;;;;9.88;1.35;;;;;;;;;;6258129;22;20071;-93
2023/03/08 00:20:20;;;;;;;4.97;1.33;;;;;;;;;;6263600;22;20012;-94
2023/03/08 00:22:46;;;;;;;2.47;1.35;;;;;;;;;;6255187;22;20016;-93
2023/03/08 00:25:15;;;;;;;2.67;1.25;;;;;;;;;;6312892;22;20029;-93
2023/03/08 00:27:42;;;;;;;13.05;1.33;;;;;;;;;;6261551;22;20017;-94
2023/03/08 00:30:12;;;;;;;2.83;1.20;;;;;;;;;;6312308;22;20003;-94
2023/03/08 00:32:38;;;;;;;2.30;1.13;;;;;;;;;;6310781;22;20003;-93
2023/03/08 00:35:05;;;;;;;4.45;1.83;;;;;;;;;;6262972;22;20008;-94
2023/03/08 00:37:34;;;;;;;2.67;1.48;;;;;;;;;;6263060;22;20003;-94
2023/03/08 00:40:01;;;;;;;3.10;1.10;;;;;;;;;;6259739;22;22426;-93
2023/03/08 00:42:27;;;;;;;3.22;1.40;;;;;;;;;;6263464;22;20019;-93
2023/03/08 00:44:53;;;;;;;6.45;1.83;;;;;;;;;;6262174;22;20011;-94
2023/03/08 00:47:19;;;;;;;1.73;0.70;;;;;;;;;;6263607;22;20084;-94
2023/03/08 00:49:54;;;;;;;1.27;1.00;;;;;;;;;;6259654;22;19999;-93
2023/03/08 00:52:20;;;;;;;3.72;0.93;;;;;;;;;;6266293;22;20015;-94
2023/03/08 00:54:49;;;;;;;3.60;1.40;;;;;;;;;;6265462;22;19999;-94
2023/03/08 00:57:21;;;;;;;4.38;0.93;;;;;;;;;;6315523;22;20003;-94
2023/03/08 00:59:47;;;;;;;0.80;0.30;;;;;;;;;;6265411;22;20077;-94
2023/03/08 01:02:16;;;;;;;2.88;0.93;;;;;;;;;;6261651;22;20062;-94
2023/03/08 01:04:43;;;;;;;4.85;1.58;;;;;;;;;;6312281;22;20027;-94
2023/03/08 01:07:09;;;;;;;1.95;0.93;;;;;;;;;;6266838;22;20061;-93
2023/03/08 01:09:35;;;;;;;3.78;1.02;;;;;;;;;;6271054;22;20007;-93
2023/03/08 01:12:01;;;;;;;1.83;0.80;;;;;;;;;;6268693;22;20026;-93
2023/03/08 01:14:36;;;;;;;5.38;1.17;;;;;;;;;;6323397;22;20011;-93
2023/03/08 01:17:16;;;;;;;3.13;1.02;;;;;;;;;;6317432;22;20456;-95
2023/03/08 01:19:42;;;;;;;1.92;1.20;;;;;;;;;;6269094;22;20015;-95
2023/03/08 01:22:08;;;;;;;10.20;1.35;;;;;;;;;;6259613;22;20022;-94
2023/03/08 01:24:51;;;;;;;8.45;1.17;;;;;;;;;;6282784;22;20065;-94
2023/03/08 01:35:59;;;;;;;10.75;1.25;;;;;;;;;;6155720;23;20037;-93
2023/03/08 01:38:49;;;;;;;5.25;1.40;;;;;;;;;;6134752;23;20010;-93
2023/03/08 01:41:25;;;;;;;1.38;0.73;;;;;;;;;;6191443;22;20016;-94
2023/03/08 01:43:55;;;;;;;4.22;1.08;;;;;;;;;;6285573;22;20012;-94
2023/03/08 01:46:42;;;;;;;5.45;1.13;;;;;;;;;;6263566;22;20016;-94
2023/03/08 01:49:18;;;;;;;6.03;1.42;;;;;;;;;;6284877;22;20085;-95
2023/03/08 01:52:02;;;;;;;3.13;1.10;;;;;;;;;;6284249;22;20010;-94
2023/03/08 01:54:41;;;;;;;2.25;1.08;;;;;;;;;;6283302;22;20032;-95
2023/03/08 01:57:11;;;;;;;5.07;1.42;;;;;;;;;;6281551;22;20000;-89
2023/03/08 01:59:38;;;;;;;2.17;1.10;;;;;;;;;;6282580;22;20000;-90
2023/03/08 02:02:06;;;;;;;1.60;0.82;;;;;;;;;;6284226;22;20003;-90
2023/03/08 02:04:39;;;;;;;7.68;1.60;;;;;;;;;;6256824;22;20463;-94
2023/03/08 02:07:05;;;;;;;2.33;1.02;;;;;;;;;;6283775;22;20062;-92
2023/03/08 02:09:32;;;;;;;2.40;0.90;;;;;;;;;;6257193;22;20018;-93
2023/03/08 02:12:00;;;;;;;2.75;1.00;;;;;;;;;;6280193;22;20018;-93
2023/03/08 02:14:34;;;;;;;2.28;1.10;;;;;;;;;;6281273;22;20011;-92
2023/03/08 02:17:04;;;;;;;1.48;0.77;;;;;;;;;;6257890;22;20020;-93
2023/03/08 02:19:43;;;;;;;1.33;0.82;;;;;;;;;;6261301;22;20015;-93
2023/03/08 02:22:11;;;;;;;2.35;0.88;;;;;;;;;;6283826;22;20011;-93
2023/03/08 02:24:55;;;;;;;3.95;1.10;;;;;;;;;;6284114;22;20023;-93
2023/03/08 02:27:26;;;;;;;2.42;1.00;;;;;;;;;;6286794;22;20058;-92
2023/03/08 02:29:52;;;;;;;5.30;1.00;;;;;;;;;;6285301;22;20000;-92
2023/03/08 02:32:19;;;;;;;4.30;0.60;;;;;;;;;;6260225;22;20035;-93
2023/03/08 02:34:45;;;;;;;3.47;0.80;;;;;;;;;;6285721;22;20004;-94
2023/03/08 02:37:38;;;;;;;4.25;0.65;;;;;;;;;;6282719;22;20004;-93
2023/03/08 02:40:10;;;;;;;1.00;0.63;;;;;;;;;;6276011;22;19988;-93
2023/03/08 02:42:36;;;;;;;1.30;0.63;;;;;;;;;;6286989;22;20038;-93
2023/03/08 02:45:03;;;;;;;1.80;0.90;;;;;;;;;;6288453;22;20360;-93
2023/03/08 02:47:38;;;;;;;4.13;0.77;;;;;;;;;;6284886;22;19996;-93
2023/03/08 02:50:05;;;;;;;0.70;0.38;;;;;;;;;;6263603;22;19999;-93
2023/03/08 02:52:31;;;;;;;2.35;0.82;;;;;;;;;;6261280;22;20073;-93
2023/03/08 02:55:00;;;;;;;1.50;0.77;;;;;;;;;;6287802;22;20003;-92
2023/03/08 02:57:27;;;;;;;3.45;0.77;;;;;;;;;;6284638;22;20007;-93
2023/03/08 02:59:57;;;;;;;8.93;0.85;;;;;;;;;;6289331;22;19999;-93
2023/03/08 03:02:23;;;;;;;1.75;0.95;;;;;;;;;;6259935;22;20074;-94
2023/03/08 03:04:50;;;;;;;7.22;0.75;;;;;;;;;;6282589;22;20004;-93
2023/03/08 03:07:16;;;;;;;10.07;0.95;;;;;;;;;;6282359;22;20456;-93
2023/03/08 03:09:43;;;;;;;11.90;1.00;;;;;;;;;;6259817;22;20865;-92
2023/03/08 03:12:09;;;;;;;3.38;0.95;;;;;;;;;;6285439;22;20012;-93
2023/03/08 03:14:37;;;;;;;1.40;0.80;;;;;;;;;;6260382;22;20007;-93
2023/03/08 03:17:03;;;;;;;5.95;0.85;;;;;;;;;;6257348;22;20011;-92
2023/03/08 03:19:32;;;;;;;4.07;0.85;;;;;;;;;;6284494;22;20057;-93
2023/03/08 03:21:58;;;;;;;1.85;0.80;;;;;;;;;;6255837;22;20022;-92
2023/03/08 03:24:24;;;;;;;4.35;0.70;;;;;;;;;;6255196;22;20007;-94
2023/03/08 03:27:11;;;;;;;1.85;0.60;;;;;;;;;;6282953;22;20036;-93
2023/03/08 03:29:39;;;;;;;2.58;0.75;;;;;;;;;;6279007;22;20063;-92
2023/03/08 03:32:05;;;;;;;5.13;1.20;;;;;;;;;;6283813;22;20008;-91
2023/03/08 03:34:32;;;;;;;5.78;0.98;;;;;;;;;;6261791;22;20011;-92
2023/03/08 03:36:58;;;;;;;2.95;1.02;;;;;;;;;;6258208;22;20014;-92
2023/03/08 03:39:24;;;;;;;2.83;0.68;;;;;;;;;;6280415;22;20076;-92
2023/03/08 03:41:51;;;;;;;5.32;1.05;;;;;;;;;;6256811;22;20074;-92
2023/03/08 03:44:17;;;;;;;8.77;0.80;;;;;;;;;;6256925;22;20004;-92
2023/03/08 03:46:43;;;;;;;11.10;1.20;;;;;;;;;;6280828;22;20033;-92
2023/03/08 03:49:10;;;;;;;1.75;0.77;;;;;;;;;;6255034;22;20008;-91
2023/03/08 03:51:36;;;;;;;1.63;0.80;;;;;;;;;;6253787;22;20012;-92
2023/03/08 03:54:02;;;;;;;5.13;0.82;;;;;;;;;;6253846;22;20011;-92
2023/03/08 03:56:28;;;;;;;2.28;0.80;;;;;;;;;;6252322;22;20011;-91
2023/03/08 03:58:57;;;;;;;2.58;0.98;;;;;;;;;;6254319;22;20018;-93
2023/03/08 04:01:24;;;;;;;6.10;0.70;;;;;;;;;;6282661;22;20065;-92
2023/03/08 04:03:52;;;;;;;1.02;0.85;;;;;;;;;;6254803;22;20015;-91
2023/03/08 04:06:29;;;;;;;2.95;0.82;;;;;;;;;;6257138;22;20007;-92
2023/03/08 04:09:04;;;;;;;7.32;1.20;;;;;;;;;;6281805;22;20375;-94
2023/03/08 04:11:34;;;;;;;6.07;0.80;;;;;;;;;;6279633;22;20079;-93
2023/03/08 04:14:01;;;;;;;3.78;1.20;;;;;;;;;;6285744;22;20025;-93
2023/03/08 04:16:28;;;;;;;2.88;0.57;;;;;;;;;;6293695;22;20075;-92
2023/03/08 04:18:55;;;;;;;2.35;0.90;;;;;;;;;;6291945;22;20003;-92
2023/03/08 04:21:24;;;;;;;2.35;0.77;;;;;;;;;;6292539;22;20016;-93
2023/03/08 04:23:52;;;;;;;2.55;0.43;;;;;;;;;;6264072;22;20008;-96
2023/03/08 04:26:20;;;;;;;3.53;0.90;;;;;;;;;;6290311;22;20000;-96
2023/03/08 04:28:47;;;;;;;2.55;1.02;;;;;;;;;;6290199;22;20000;-96
2023/03/08 04:31:19;;;;;;;1.83;0.70;;;;;;;;;;6265751;22;20012;-96
2023/03/08 04:33:50;;;;;;;1.42;0.52;;;;;;;;;;6289008;22;20011;-96
2023/03/08 04:36:17;;;;;;;4.45;0.80;;;;;;;;;;6289554;22;20015;-96
2023/03/08 04:38:44;;;;;;;5.10;1.08;;;;;;;;;;6288960;22;20486;-96
2023/03/08 04:41:14;;;;;;;2.72;0.60;;;;;;;;;;6290586;22;20427;-96
2023/03/08 04:43:51;;;;;;;4.20;1.35;;;;;;;;;;6265404;22;20008;-95
2023/03/08 04:46:21;;;;;;;2.92;0.68;;;;;;;;;;6290925;22;20004;-96
2023/03/08 04:48:48;;;;;;;4.10;0.73;;;;;;;;;;6287125;22;20511;-96
2023/03/08 04:51:16;;;;;;;3.28;0.68;;;;;;;;;;6271163;22;20008;-96
2023/03/08 04:53:48;;;;;;;5.80;1.00;;;;;;;;;;6302491;22;20007;-96
2023/03/08 04:56:45;;;;;;;1.83;0.70;;;;;;;;;;6300676;22;20000;-96
2023/03/08 05:10:14;;;;;;;4.80;0.80;;;;;;;;;;6249086;22;20032;-93
2023/03/08 05:12:44;;;;;;;10.10;1.10;;;;;;;;;;6246416;22;20016;-93
2023/03/08 05:15:13;;;;;;;1.00;0.63;;;;;;;;;;6275951;22;20004;-93
2023/03/08 05:17:39;;;;;;;3.58;0.63;;;;;;;;;;6271656;22;20007;-93
2023/03/08 05:20:05;;;;;;;1.17;0.63;;;;;;;;;;6272638;22;20060;-93
2023/03/08 05:22:38;;;;;;;10.68;1.02;;;;;;;;;;6247176;22;20018;-94
2023/03/08 05:25:05;;;;;;;4.32;1.02;;;;;;;;;;6275138;22;20421;-93
2023/03/08 05:27:32;;;;;;;3.83;0.98;;;;;;;;;;6273414;22;20091;-93
2023/03/08 05:29:59;;;;;;;3.10;0.95;;;;;;;;;;6272296;22;20050;-92
2023/03/08 05:32:26;;;;;;;4.93;0.88;;;;;;;;;;6272218;22;20031;-92
2023/03/08 05:35:01;;;;;;;3.42;0.90;;;;;;;;;;6248361;22;20438;-93
2023/03/08 05:37:28;;;;;;;1.30;0.80;;;;;;;;;;6272363;22;20425;-92
2023/03/08 05:39:54;;;;;;;4.32;1.02;;;;;;;;;;6247385;22;20087;-93
2023/03/08 05:42:24;;;;;;;2.25;0.93;;;;;;;;;;6245109;22;20012;-93
2023/03/08 05:44:50;;;;;;;5.60;1.48;;;;;;;;;;6271793;22;20430;-93
2023/03/08 05:47:20;;;;;;;3.83;1.17;;;;;;;;;;6273663;22;20065;-93
2023/03/08 05:49:46;;;;;;;3.80;1.20;;;;;;;;;;6273525;22;20038;-92
2023/03/08 05:52:13;;;;;;;11.43;4.35;;;;;;;;;;6248030;22;20041;-94
2023/03/08 05:54:39;;;;;;;8.95;3.10;;;;;;;;;;6249055;22;20015;-93
2023/03/08 05:57:05;;;;;;;9.82;1.83;;;;;;;;;;6272636;22;20015;-93
2023/03/08 05:59:32;;;;;;;3.50;1.25;;;;;;;;;;6248056;22;20457;-92
2023/03/08 06:02:03;;;;;;;7.72;1.60;;;;;;;;;;6247367;22;20015;-93
2023/03/08 06:04:29;;;;;;;1.40;1.02;;;;;;;;;;6248832;22;20008;-92
2023/03/08 06:06:56;;;;;;;4.18;1.00;;;;;;;;;;6275366;22;20448;-93
2023/03/08 06:09:22;;;;;;;2.78;1.63;;;;;;;;;;6274938;22;20056;-92
2023/03/08 06:11:55;;;;;;;2.70;1.40;;;;;;;;;;6251133;22;20027;-93
2023/03/08 06:14:21;;;;;;;11.45;1.73;;;;;;;;;;6276628;22;20315;-92
2023/03/08 06:16:47;;;;;;;6.95;1.30;;;;;;;;;;6258209;22;20012;-92
2023/03/08 06:19:15;;;;;;;5.05;1.27;;;;;;;;;;6281172;22;20519;-93
2023/03/08 06:21:41;;;;;;;1.10;0.57;;;;;;;;;;6258389;22;20027;-93
2023/03/08 06:24:08;;;;;;;4.85;1.20;;;;;;;;;;6255661;22;20019;-93
2023/03/08 06:26:34;;;;;;;2.97;1.25;;;;;;;;;;6254869;22;20060;-92
2023/03/08 06:29:01;;;;;;;1.42;0.80;;;;;;;;;;6280325;22;20054;-92
2023/03/08 06:31:27;;;;;;;6.63;1.13;;;;;;;;;;6253781;22;20007;-92
2023/03/08 06:33:56;;;;;;;5.90;1.52;;;;;;;;;;6251828;22;20186;-93
2023/03/08 06:36:22;;;;;;;9.07;2.00;;;;;;;;;;6252233;22;20022;-92
2023/03/08 06:38:53;;;;;;;6.05;2.03;;;;;;;;;;6248351;22;20063;-92
2023/03/08 06:41:25;;;;;;;3.47;1.50;;;;;;;;;;6248938;22;20012;-93
2023/03/08 06:43:52;;;;;;;5.05;1.63;;;;;;;;;;6270451;22;20005;-93
2023/03/08 06:46:19;;;;;;;4.35;1.42;;;;;;;;;;6247969;22;20085;-92
2023/03/08 06:48:47;;;;;;;4.95;1.70;;;;;;;;;;6271614;22;20007;-92
2023/03/08 06:51:14;;;;;;;4.85;1.63;;;;;;;;;;6271976;22;20008;-92
2023/03/08 06:53:41;;;;;;;6.60;2.63;;;;;;;;;;6273788;22;20411;-92
2023/03/08 06:56:08;;;;;;;10.45;2.47;;;;;;;;;;6273184;22;20007;-93
2023/03/08 06:58:37;;;;;;;4.22;1.92;;;;;;;;;;6269373;22;20383;-93
2023/03/08 07:01:08;;;;;;;7.45;2.72;;;;;;;;;;6247065;22;20558;-92
2023/03/08 07:03:38;;;;;;;12.55;2.28;;;;;;;;;;6272516;22;20031;-92
2023/03/08 07:06:06;;;;;;;4.32;2.33;;;;;;;;;;6270998;22;20063;-92
2023/03/08 07:08:32;;;;;;;5.10;2.40;;;;;;;;;;6270657;22;20128;-92
2023/03/08 07:10:59;;;;;;;8.43;1.75;;;;;;;;;;6273063;22;20081;-92
2023/03/08 07:13:35;;;;;;;3.65;1.67;;;;;;;;;;6271289;22;20012;-92
2023/03/08 07:16:08;;;;;;;6.45;2.03;;;;;;;;;;6250830;22;20007;-92
2023/03/08 07:18:35;;;;;;;7.97;2.50;;;;;;;;;;6272250;22;20015;-92
2023/03/08 07:21:01;;;;;;;6.03;2.58;;;;;;;;;;6247674;22;20021;-92
2023/03/08 07:23:27;;;;;;;7.60;2.47;;;;;;;;;;6248094;22;20004;-92
2023/03/08 07:25:54;;;;;;;3.05;1.95;;;;;;;;;;6272318;22;20011;-93
2023/03/08 07:28:20;;;;;;;10.27;2.20;;;;;;;;;;6245446;22;20019;-93
2023/03/08 07:30:47;;;;;;;4.18;1.90;;;;;;;;;;6246049;22;20016;-92
2023/03/08 07:33:15;;;;;;;8.30;2.28;;;;;;;;;;6272391;22;20509;-92
2023/03/08 07:35:41;;;;;;;8.68;2.22;;;;;;;;;;6270027;22;20012;-93
2023/03/08 07:38:16;;;;;;;4.38;2.40;;;;;;;;;;6271365;22;20011;-93
2023/03/08 07:40:43;;;;;;;6.63;3.00;;;;;;;;;;6272825;22;20004;-93
2023/03/08 07:43:09;;;;;;;10.50;3.33;;;;;;;;;;6248372;22;20333;-92
2023/03/08 07:45:38;;;;;;;16.75;3.20;;;;;;;;;;6271508;22;20029;-92
2023/03/08 07:48:08;;;;;;;12.00;3.50;;;;;;;;;;6270556;22;20010;-93
2023/03/08 07:50:34;;;;;;;5.70;3.20;;;;;;;;;;6247962;22;20203;-92
2023/03/08 07:53:01;;;;;;;7.30;3.60;;;;;;;;;;6245006;22;20445;-92
2023/03/08 07:55:27;;;;;;;9.23;4.15;;;;;;;;;;6269209;22;20079;-92
2023/03/08 07:57:57;;;;;;;5.18;3.63;;;;;;;;;;6271587;22;20018;-92
2023/03/08 08:00:24;;;;;;;9.80;3.78;;;;;;;;;;6272247;22;20011;-92
2023/03/08 08:02:53;;;;;;;19.15;3.33;;;;;;;;;;6249930;22;20090;-92
2023/03/08 08:05:22;;;;;;;7.28;3.85;;;;;;;;;;6247260;22;20038;-92
2023/03/08 08:07:49;;;;;;;10.15;4.28;;;;;;;;;;6270402;22;20000;-92
2023/03/08 08:10:19;;;;;;;7.38;4.05;;;;;;;;;;6250816;22;20031;-92
2023/03/08 08:12:52;;;;;;;9.00;3.67;;;;;;;;;;6251874;22;20011;-92
2023/03/08 08:15:18;;;;;;;9.20;3.67;;;;;;;;;;6253578;22;20007;-93
2023/03/08 08:17:45;;;;;;;9.35;4.28;;;;;;;;;;6251855;22;20039;-93
2023/03/08 08:20:14;;;;;;;6.00;3.75;;;;;;;;;;6251787;22;20353;-92
2023/03/08 08:22:40;;;;;;;8.77;3.92;;;;;;;;;;6250824;22;20012;-93
2023/03/08 08:25:11;;;;;;;7.15;4.28;;;;;;;;;;6275798;22;20669;-93
2023/03/08 08:27:38;;;;;;;7.47;4.28;;;;;;;;;;6249749;22;20011;-93
2023/03/08 08:30:05;;;;;;;11.88;3.85;;;;;;;;;;6249695;22;20007;-94
2023/03/08 08:32:36;;;;;;;5.85;3.85;;;;;;;;;;6273966;22;20468;-93
2023/03/08 08:35:02;;;;;;;8.30;3.88;;;;;;;;;;6276669;22;20003;-94
2023/03/08 08:37:29;;;;;;;8.63;3.92;;;;;;;;;;6250403;22;20008;-93
2023/03/08 08:39:55;;;;;;;9.13;4.32;;;;;;;;;;6275735;22;20376;-93
2023/03/08 08:42:37;;;;;;;16.05;5.50;;;;;;;;;;6274319;22;20011;-93
2023/03/08 08:45:03;;;;;;;11.27;7.03;;;;;;;;;;6276394;22;20460;-93
2023/03/08 08:47:31;;;;;;;12.48;5.15;;;;;;;;;;6250527;22;20011;-93
2023/03/08 08:49:59;;;;;;;8.02;5.60;;;;;;;;;;6250952;22;20011;-93
2023/03/08 08:52:25;;;;;;;16.15;6.18;;;;;;;;;;6275694;22;20007;-93
2023/03/08 08:54:57;;;;;;;8.70;6.20;;;;;;;;;;6249716;22;20281;-93
2023/03/08 08:57:23;;;;;;;9.43;4.60;;;;;;;;;;6249745;22;20089;-92
2023/03/08 08:59:51;;;;;;;8.32;4.85;;;;;;;;;;6249529;22;20022;-93
2023/03/08 09:02:17;;;;;;;10.85;5.28;;;;;;;;;;6250231;22;20020;-93
2023/03/08 09:04:44;;;;;;;10.68;5.80;;;;;;;;;;6301682;22;20003;-93
2023/03/08 09:07:10;;;;;;;12.25;5.20;;;;;;;;;;6276471;22;20018;-92
2023/03/08 09:09:36;;;;;;;13.13;5.35;;;;;;;;;;6248662;22;20007;-92
2023/03/08 09:12:03;;;;;;;11.85;5.57;;;;;;;;;;6250465;22;20030;-92
2023/03/08 09:14:29;;;;;;;10.98;5.43;;;;;;;;;;6250937;22;20012;-92
2023/03/08 09:16:55;;;;;;;16.92;4.82;;;;;;;;;;6275343;22;20007;-93
2023/03/08 09:19:22;;;;;;;9.02;5.03;;;;;;;;;;6250323;22;20630;-92
2023/03/08 09:21:48;;;;;;;7.85;5.40;;;;;;;;;;6279370;22;20031;-92
2023/03/08 09:24:15;;;;;;;9.68;5.93;;;;;;;;;;6254240;22;20052;-92
2023/03/08 09:26:42;;;;;;;13.52;6.03;;;;;;;;;;6255018;22;20042;-91
2023/03/08 09:29:14;;;;;;;7.80;4.90;;;;;;;;;;6275834;22;20004;-93
2023/03/08 09:31:42;;;;;;;15.18;5.70;;;;;;;;;;6255863;22;20508;-93
2023/03/08 09:34:09;;;;;;;13.57;5.07;;;;;;;;;;6279972;22;20047;-92
2023/03/08 09:36:40;;;;;;;8.15;5.40;;;;;;;;;;6278288;22;20078;-93
2023/03/08 09:39:08;;;;;;;14.15;5.57;;;;;;;;;;6276875;22;20392;-93
2023/03/08 09:41:37;;;;;;;9.95;4.65;;;;;;;;;;6253936;22;20401;-93
2023/03/08 09:44:22;;;;;;;7.53;5.15;;;;;;;;;;6279080;22;20284;-93
2023/03/08 09:47:07;;;;;;;5.75;4.00;;;;;;;;;;6281066;22;20077;-93
2023/03/08 09:49:35;;;;;;;8.55;4.80;;;;;;;;;;6286291;22;20014;-92
2023/03/08 09:52:04;;;;;;;8.13;4.78;;;;;;;;;;6295804;22;20027;-93
2023/03/08 09:54:33;;;;;;;10.82;5.35;;;;;;;;;;6297426;22;20181;-93
2023/03/08 09:57:01;;;;;;;7.35;4.72;;;;;;;;;;6271193;22;20380;-93
2023/03/08 09:59:34;;;;;;;8.32;5.25;;;;;;;;;;6299900;22;20007;-95
2023/03/08 10:02:12;;;;;;;6.95;4.20;;;;;;;;;;6280853;22;20037;-93
2023/03/08 10:04:45;;;;;;;7.90;4.50;;;;;;;;;;6283234;22;20003;-94
2023/03/08 10:07:44;;;;;;;6.72;4.38;;;;;;;;;;6284584;22;20152;-93
2023/03/08 10:10:10;;;;;;;10.18;4.25;;;;;;;;;;6217952;22;20004;-92
2023/03/08 10:13:01;;;;;;;9.18;4.07;;;;;;;;;;6280570;22;20015;-94
2023/03/08 10:15:49;;;;;;;9.18;4.45;;;;;;;;;;6277794;22;20046;-94
2023/03/08 10:18:16;;;;;;;8.77;3.10;;;;;;;;;;6277405;22;20007;-94
2023/03/08 10:20:43;;;;;;;4.90;3.10;;;;;;;;;;6279172;22;20357;-95
2023/03/08 10:23:21;;;;;;;8.88;3.22;;;;;;;;;;6280447;22;20003;-94
2023/03/08 10:25:49;;;;;;;6.63;3.05;;;;;;;;;;6256801;22;20338;-94
2023/03/08 10:28:19;;;;;;;3.33;2.45;;;;;;;;;;6280919;22;20094;-94
2023/03/08 10:30:53;;;;;;;5.97;2.50;;;;;;;;;;6292851;22;20003;-93
2023/03/08 10:33:21;;;;;;;8.90;2.40;;;;;;;;;;6301559;22;20019;-94
2023/03/08 10:35:55;;;;;;;9.63;2.10;;;;;;;;;;6298786;22;20319;-94
2023/03/08 10:38:23;;;;;;;3.95;2.33;;;;;;;;;;6299471;22;20011;-94
2023/03/08 10:40:49;;;;;;;5.40;2.78;;;;;;;;;;6299475;22;20037;-95
2023/03/08 10:43:27;;;;;;;5.05;2.13;;;;;;;;;;6300749;22;20429;-95
2023/03/08 10:46:04;;;;;;;9.18;2.60;;;;;;;;;;6285881;22;20006;-94
2023/03/08 10:48:30;;;;;;;3.55;2.28;;;;;;;;;;6281847;22;20182;-94
2023/03/08 10:51:03;;;;;;;4.45;2.60;;;;;;;;;;6280040;22;20011;-95
2023/03/08 10:53:30;;;;;;;4.30;2.08;;;;;;;;;;6278957;22;20007;-94
2023/03/08 10:56:01;;;;;;;8.00;2.03;;;;;;;;;;6279810;22;20004;-96
2023/03/08 10:58:30;;;;;;;4.50;2.00;;;;;;;;;;6278499;22;20007;-94
2023/03/08 11:00:57;;;;;;;6.15;2.10;;;;;;;;;;6277780;22;20007;-95
2023/03/08 11:03:24;;;;;;;4.38;1.90;;;;;;;;;;6278434;22;20010;-95
2023/03/08 11:05:58;;;;;;;3.78;2.08;;;;;;;;;;6277972;22;20012;-95
2023/03/08 11:08:32;;;;;;;5.07;2.38;;;;;;;;;;6277531;22;20345;-95
2023/03/08 11:11:10;;;;;;;3.78;2.40;;;;;;;;;;6278312;22;20023;-94
2023/03/08 11:13:36;;;;;;;10.32;1.98;;;;;;;;;;6276205;22;20003;-95
2023/03/08 11:16:15;;;;;;;4.65;2.25;;;;;;;;;;6277011;22;20433;-94
2023/03/08 11:19:00;;;;;;;4.50;1.70;;;;;;;;;;6278503;22;20007;-95
2023/03/08 11:21:33;;;;;;;2.95;1.75;;;;;;;;;;6276601;22;20026;-95
2023/03/08 11:24:21;;;;;;;5.38;1.90;;;;;;;;;;6276258;22;20011;-95
2023/03/08 11:26:53;;;;;;;3.33;1.48;;;;;;;;;;6276943;22;20010;-95
2023/03/08 11:29:38;;;;;;;2.40;1.50;;;;;;;;;;6276171;22;20152;-95
2023/03/08 11:32:28;;;;;;;2.67;1.92;;;;;;;;;;6278121;22;20014;-95
2023/03/08 11:34:57;;;;;;;4.70;1.90;;;;;;;;;;6277438;22;20014;-95
2023/03/08 11:37:30;;;;;;;7.35;1.88;;;;;;;;;;6278322;22;20555;-94
2023/03/08 11:40:15;;;;;;;2.92;1.60;;;;;;;;;;6277547;22;20056;-94
2023/03/08 11:42:42;;;;;;;3.38;1.33;;;;;;;;;;6278310;22;20011;-94
2023/03/08 11:45:37;;;;;;;1.75;1.15;;;;;;;;;;6278780;22;20030;-94
2023/03/08 11:48:10;;;;;;;5.83;0.97;;;;;;;;;;6274497;22;20038;-95
2023/03/08 11:50:49;;;;;;;5.30;1.00;;;;;;;;;;6276157;22;20003;-94
2023/03/08 11:53:30;;;;;;;3.15;1.42;;;;;;;;;;6275776;22;19999;-95
2023/03/08 11:56:08;;;;;;;1.63;1.00;;;;;;;;;;6275412;22;20090;-95
2023/03/08 11:58:39;;;;;;;1.02;0.75;;;;;;;;;;6274765;22;20003;-95
2023/03/08 12:01:24;;;;;;;5.03;1.13;;;;;;;;;;6274961;22;20452;-94
2023/03/08 12:04:15;;;;;;;3.15;1.52;;;;;;;;;;6276096;22;20154;-96
2023/03/08 12:06:45;;;;;;;2.60;1.20;;;;;;;;;;6279367;22;20058;-95
2023/03/08 12:09:30;;;;;;;2.63;1.30;;;;;;;;;;6277534;22;20002;-95
2023/03/08 12:12:10;;;;;;;4.78;1.40;;;;;;;;;;6278629;22;20352;-95
2023/03/08 12:14:42;;;;;;;2.35;1.02;;;;;;;;;;6278184;22;20453;-95
2023/03/08 12:17:36;;;;;;;7.43;1.85;;;;;;;;;;6277184;22;20008;-95
2023/03/08 12:20:06;;;;;;;1.17;0.93;;;;;;;;;;6276902;22;20068;-94
2023/03/08 12:22:47;;;;;;;3.45;1.23;;;;;;;;;;6277710;22;20011;-95
2023/03/08 12:25:45;;;;;;;6.65;2.50;;;;;;;;;;6278126;22;20069;-95
2023/03/08 12:28:26;;;;;;;2.60;1.60;;;;;;;;;;6275934;22;20091;-94
2023/03/08 12:31:04;;;;;;;4.10;1.20;;;;;;;;;;6277613;22;20090;-95
2023/03/08 12:33:31;;;;;;;6.07;1.70;;;;;;;;;;6278176;22;20401;-95
2023/03/08 12:36:04;;;;;;;7.50;1.80;;;;;;;;;;6252488;22;20487;-92
2023/03/08 12:38:32;;;;;;;3.17;1.30;;;;;;;;;;6250893;22;20418;-94
2023/03/08 12:41:06;;;;;;;2.13;1.08;;;;;;;;;;6277192;22;20007;-94
2023/03/08 12:43:34;;;;;;;9.05;1.60;;;;;;;;;;6276280;22;20027;-95
2023/03/08 12:46:01;;;;;;;2.50;1.40;;;;;;;;;;6277984;22;20011;-93
2023/03/08 12:48:37;;;;;;;4.93;1.40;;;;;;;;;;6277242;22;19999;-96
2023/03/08 12:51:08;;;;;;;2.00;1.30;;;;;;;;;;6276357;22;20011;-94
2023/03/08 12:53:40;;;;;;;3.45;1.42;;;;;;;;;;6278428;22;20072;-95
2023/03/08 12:56:09;;;;;;;3.70;1.33;;;;;;;;;;6279006;22;20004;-95
2023/03/08 12:58:49;;;;;;;4.50;0.88;;;;;;;;;;6277273;22;20038;-94
2023/03/08 13:01:34;;;;;;;5.32;1.20;;;;;;;;;;6279282;22;20045;-94
2023/03/08 13:04:02;;;;;;;7.97;1.50;;;;;;;;;;6278937;22;20098;-94
2023/03/08 13:06:35;;;;;;;1.83;1.10;;;;;;;;;;6256586;22;20003;-94
2023/03/08 13:09:15;;;;;;;3.55;1.30;;;;;;;;;;6279626;22;20007;-94
2023/03/08 13:11:57;;;;;;;3.78;1.00;;;;;;;;;;6286012;22;20023;-94
2023/03/08 13:14:25;;;;;;;3.00;1.00;;;;;;;;;;6283338;22;20042;-96
2023/03/08 13:16:52;;;;;;;3.42;0.98;;;;;;;;;;6283195;22;20011;-94
2023/03/08 13:19:23;;;;;;;6.32;1.50;;;;;;;;;;6260300;22;20349;-94
2023/03/08 13:22:08;;;;;;;3.88;0.98;;;;;;;;;;6288749;22;20525;-95
2023/03/08 13:24:44;;;;;;;4.00;0.88;;;;;;;;;;6301189;22;19987;-94
2023/03/08 13:27:16;;;;;;;2.28;1.08;;;;;;;;;;6299275;22;19987;-93
2023/03/08 13:29:43;;;;;;;4.53;1.33;;;;;;;;;;6296890;22;20011;-94
2023/03/08 13:32:18;;;;;;;7.38;1.48;;;;;;;;;;6298214;22;20266;-95
2023/03/08 13:34:45;;;;;;;2.33;1.15;;;;;;;;;;6293418;22;20030;-95
2023/03/08 13:37:25;;;;;;;1.65;1.20;;;;;;;;;;6262304;22;20011;-94
2023/03/08 13:39:55;;;;;;;4.25;0.95;;;;;;;;;;6258193;22;20015;-95
2023/03/08 13:42:25;;;;;;;3.25;0.95;;;;;;;;;;6281057;22;20038;-95
2023/03/08 13:44:52;;;;;;;6.05;1.00;;;;;;;;;;6281508;22;20374;-95
2023/03/08 13:47:23;;;;;;;2.00;1.00;;;;;;;;;;6309753;22;20042;-94
2023/03/08 13:49:55;;;;;;;8.73;1.00;;;;;;;;;;6284046;22;20010;-94
2023/03/08 13:52:23;;;;;;;2.90;1.05;;;;;;;;;;6284793;22;20034;-96
2023/03/08 13:55:00;;;;;;;2.53;2.20;;;;;;;;;;6287216;22;20003;-94
2023/03/08 13:57:28;;;;;;;2.20;1.30;;;;;;;;;;6285696;22;20026;-94
2023/03/08 13:59:56;;;;;;;7.47;1.33;;;;;;;;;;6285536;22;20011;-95
2023/03/08 14:02:30;;;;;;;6.70;1.48;;;;;;;;;;6280861;22;20007;-94
2023/03/08 14:04:57;;;;;;;3.25;1.40;;;;;;;;;;6280633;22;20003;-94
2023/03/08 14:07:24;;;;;;;5.18;1.27;;;;;;;;;;6253617;22;20012;-95
2023/03/08 14:09:52;;;;;;;2.08;1.30;;;;;;;;;;6278429;22;20084;-94
2023/03/08 14:12:20;;;;;;;3.65;1.60;;;;;;;;;;6251732;22;20030;-94
2023/03/08 14:14:48;;;;;;;5.05;2.08;;;;;;;;;;6276545;22;20097;-94
2023/03/08 14:17:22;;;;;;;2.60;1.70;;;;;;;;;;6251820;22;20007;-94
2023/03/08 14:20:11;;;;;;;6.07;2.03;;;;;;;;;;6275822;22;20018;-93
2023/03/08 14:22:39;;;;;;;3.67;1.42;;;;;;;;;;6232550;22;20019;-94
2023/03/08 14:25:05;;;;;;;3.85;2.05;;;;;;;;;;6276144;22;20003;-95
2023/03/08 14:27:31;;;;;;;1.75;1.30;;;;;;;;;;6248479;22;20263;-95
2023/03/08 14:30:02;;;;;;;8.30;1.13;;;;;;;;;;6276714;22;20448;-94
2023/03/08 14:32:30;;;;;;;4.28;1.00;;;;;;;;;;6275135;22;20008;-95
2023/03/08 14:35:04;;;;;;;2.75;1.60;;;;;;;;;;6250044;22;20094;-94
2023/03/08 14:37:31;;;;;;;4.10;1.77;;;;;;;;;;6250450;22;20034;-94
2023/03/08 14:40:15;;;;;;;4.05;1.85;;;;;;;;;;6250378;22;20003;-95
2023/03/08 14:42:47;;;;;;;1.55;1.40;;;;;;;;;;6273864;22;20015;-94
2023/03/08 14:45:31;;;;;;;4.82;1.60;;;;;;;;;;6276733;22;20007;-94
2023/03/08 14:48:16;;;;;;;3.67;1.33;;;;;;;;;;6276287;22;20127;-93
2023/03/08 14:50:55;;;;;;;2.42;1.42;;;;;;;;;;6277781;22;20000;-95
2023/03/08 14:53:28;;;;;;;2.58;1.15;;;;;;;;;;6277274;22;20011;-93
2023/03/08 14:55:54;;;;;;;2.05;1.17;;;;;;;;;;6278050;22;20012;-94
2023/03/08 14:58:22;;;;;;;2.38;1.30;;;;;;;;;;6252396;22;20014;-94
2023/03/08 15:00:49;;;;;;;1.90;1.10;;;;;;;;;;6277258;22;20007;-94
2023/03/08 15:03:17;;;;;;;2.70;1.20;;;;;;;;;;6250266;22;20012;-94
2023/03/08 15:05:45;;;;;;;6.38;1.42;;;;;;;;;;6276909;22;20010;-95
2023/03/08 15:08:12;;;;;;;2.50;1.40;;;;;;;;;;6303329;22;20042;-93
2023/03/08 15:10:40;;;;;;;3.97;1.30;;;;;;;;;;6276879;22;20011;-94
2023/03/08 15:13:10;;;;;;;8.30;1.70;;;;;;;;;;6250769;22;20484;-94
2023/03/08 15:15:36;;;;;;;3.83;2.47;;;;;;;;;;6276827;22;20341;-94
2023/03/08 15:18:02;;;;;;;6.80;2.40;;;;;;;;;;6250683;22;20444;-94
2023/03/08 15:20:29;;;;;;;4.57;2.20;;;;;;;;;;6250368;22;20007;-93